createdAt,value
2023-01-15T00:01:22.045Z,2.72
2023-01-15T00:02:44.154Z,2.74
2023-01-15T00:04:07.468Z,2.69
2023-01-15T00:05:29.403Z,2.68
2023-01-15T00:06:51.264Z,2.66
2023-01-15T00:08:13.024Z,2.66
2023-01-15T00:09:35.107Z,2.67
2023-01-15T00:10:57.994Z,2.69
2023-01-15T00:12:19.953Z,2.69
2023-01-15T00:13:42.330Z,2.68
2023-01-15T00:15:04.449Z,2.68
2023-01-15T00:16:27.717Z,2.69
2023-01-15T00:17:49.641Z,2.70
2023-01-15T00:19:12.382Z,2.71
2023-01-15T00:20:33.968Z,2.70
2023-01-15T00:21:55.798Z,2.72
2023-01-15T00:23:37.801Z,2.71
2023-01-15T00:25:18.117Z,2.73
2023-01-15T00:26:59.119Z,2.73
2023-01-15T00:28:20.988Z,2.72
2023-01-15T00:29:42.575Z,2.73
2023-01-15T00:31:06.186Z,2.73
2023-01-15T00:32:29.801Z,2.73
2023-01-15T00:33:51.588Z,2.72
2023-01-15T00:35:16.099Z,2.72
2023-01-15T00:36:37.968Z,2.72
2023-01-15T00:38:01.770Z,2.72
2023-01-15T00:39:25.546Z,2.71
2023-01-15T00:40:52.926Z,2.73
2023-01-15T00:42:14.706Z,2.74
2023-01-15T00:43:36.312Z,2.74
2023-01-15T00:44:58.404Z,2.76
2023-01-15T00:46:20.749Z,2.76
2023-01-15T00:47:45.612Z,2.76
2023-01-15T00:49:07.600Z,2.78
2023-01-15T00:50:30.379Z,2.79
2023-01-15T00:51:53.041Z,2.79
2023-01-15T00:53:14.700Z,2.80
2023-01-15T00:54:36.700Z,2.80
2023-01-15T00:55:58.653Z,2.80
2023-01-15T00:57:20.656Z,2.81
2023-01-15T00:58:42.667Z,2.83
2023-01-15T01:00:05.193Z,2.82
2023-01-15T01:01:27.223Z,2.81
2023-01-15T01:02:48.964Z,2.81
2023-01-15T01:04:10.909Z,2.79
2023-01-15T01:05:33.198Z,2.79
2023-01-15T01:06:55.481Z,2.79
2023-01-15T01:08:17.662Z,2.77
2023-01-15T01:09:39.770Z,2.77
2023-01-15T01:11:10.477Z,2.78
2023-01-15T01:12:32.523Z,2.79
2023-01-15T01:13:55.832Z,2.80
2023-01-15T01:15:18.340Z,2.81
2023-01-15T01:16:42.132Z,2.81
2023-01-15T01:18:05.727Z,2.80
2023-01-15T01:19:28.022Z,2.81
2023-01-15T01:20:49.766Z,2.81
2023-01-15T01:22:11.693Z,2.82
2023-01-15T01:23:33.543Z,2.80
2023-01-15T01:24:55.405Z,2.81
2023-01-15T01:26:17.952Z,2.83
2023-01-15T01:27:39.852Z,2.82
2023-01-15T01:29:02.346Z,2.82
2023-01-15T01:30:24.107Z,2.82
2023-01-15T01:31:46.580Z,2.83
2023-01-15T01:33:08.724Z,2.84
2023-01-15T01:34:30.857Z,2.83
2023-01-15T01:35:52.529Z,2.84
2023-01-15T01:37:15.994Z,2.84
2023-01-15T01:38:37.871Z,2.85
2023-01-15T01:39:59.693Z,2.85
2023-01-15T01:41:21.438Z,2.85
2023-01-15T01:42:43.178Z,2.85
2023-01-15T01:44:25.105Z,2.85
2023-01-15T01:45:46.859Z,2.85
2023-01-15T01:47:22.800Z,2.85
2023-01-15T01:48:45.044Z,2.85
2023-01-15T01:50:12.236Z,2.85
2023-01-15T01:51:58.491Z,2.85
2023-01-15T01:53:26.583Z,2.85
2023-01-15T01:54:49.921Z,2.87
2023-01-15T01:56:11.876Z,2.87
2023-01-15T01:57:34.169Z,2.88
2023-01-15T01:58:56.979Z,2.88
2023-01-15T02:00:21.477Z,2.89
2023-01-15T02:01:43.402Z,2.90
2023-01-15T02:03:08.884Z,2.90
2023-01-15T02:04:31.739Z,2.91
2023-01-15T02:05:58.705Z,2.90
2023-01-15T02:07:21.168Z,2.90
2023-01-15T02:08:43.627Z,2.75
2023-01-15T02:10:06.204Z,2.71
2023-01-15T02:11:29.881Z,2.65
2023-01-15T02:13:12.570Z,2.64
2023-01-15T02:14:38.126Z,2.63
2023-01-15T02:16:21.225Z,2.64
2023-01-15T02:18:06.643Z,2.63
2023-01-15T02:19:34.052Z,2.62
2023-01-15T02:21:07.280Z,2.61
2023-01-15T02:22:32.060Z,2.60
2023-01-15T02:24:00.370Z,2.60
2023-01-15T02:25:44.002Z,2.59
2023-01-15T02:27:06.255Z,2.61
2023-01-15T02:28:51.453Z,2.60
2023-01-15T02:30:28.857Z,2.62
2023-01-15T02:31:53.356Z,2.63
2023-01-15T02:33:23.032Z,2.65
2023-01-15T02:34:50.544Z,2.64
2023-01-15T02:36:16.236Z,2.66
2023-01-15T02:37:42.387Z,2.67
2023-01-15T02:39:11.273Z,2.69
2023-01-15T02:40:35.202Z,2.71
2023-01-15T02:42:00.506Z,2.72
2023-01-15T02:43:32.712Z,2.73
2023-01-15T02:44:58.710Z,2.74
2023-01-15T02:46:24.990Z,2.75
2023-01-15T02:47:47.960Z,2.76
2023-01-15T02:49:13.984Z,2.76
2023-01-15T02:50:55.864Z,2.75
2023-01-15T02:52:22.509Z,2.77
2023-01-15T02:53:48.493Z,2.76
2023-01-15T02:55:24.339Z,2.77
2023-01-15T02:56:49.536Z,2.78
2023-01-15T02:58:15.553Z,2.78
2023-01-15T02:59:48.418Z,2.80
2023-01-15T03:01:18.930Z,2.78
2023-01-15T03:02:46.846Z,2.78
2023-01-15T03:04:21.774Z,2.76
2023-01-15T03:06:16.468Z,2.76
2023-01-15T03:07:51.384Z,2.77
2023-01-15T03:09:15.369Z,2.77
2023-01-15T03:10:48.541Z,2.78
2023-01-15T03:12:20.321Z,2.79
2023-01-15T03:14:12.039Z,2.79
2023-01-15T03:16:19.908Z,2.80
2023-01-15T03:17:55.173Z,2.81
2023-01-15T03:19:22.565Z,2.81
2023-01-15T03:20:54.453Z,2.81
2023-01-15T03:22:29.922Z,2.82
2023-01-15T03:23:55.040Z,2.81
2023-01-15T03:25:27.453Z,2.83
2023-01-15T03:26:52.305Z,2.83
2023-01-15T03:28:17.817Z,2.82
2023-01-15T03:29:49.345Z,2.83
2023-01-15T03:31:11.618Z,2.83
2023-01-15T03:32:33.873Z,2.84
2023-01-15T03:33:58.526Z,2.83
2023-01-15T03:35:47.650Z,2.85
2023-01-15T03:37:20.759Z,2.84
2023-01-15T03:38:46.932Z,2.84
2023-01-15T03:40:17.792Z,2.83
2023-01-15T03:41:50.206Z,2.83
2023-01-15T03:43:34.134Z,2.83
2023-01-15T03:45:14.886Z,2.83
2023-01-15T03:46:47.631Z,2.83
2023-01-15T03:48:12.839Z,2.83
2023-01-15T03:49:37.861Z,2.84
2023-01-15T03:51:20.382Z,2.84
2023-01-15T03:53:00.475Z,2.84
2023-01-15T03:54:48.059Z,2.84
2023-01-15T03:56:25.110Z,2.84
2023-01-15T03:57:49.837Z,2.83
2023-01-15T03:59:23.263Z,2.84
2023-01-15T04:00:59.864Z,2.84
2023-01-15T04:02:24.531Z,2.84
2023-01-15T04:03:49.001Z,2.83
2023-01-15T04:05:12.954Z,2.83
2023-01-15T04:06:38.858Z,2.83
2023-01-15T04:08:01.611Z,2.83
2023-01-15T04:09:25.666Z,2.82
2023-01-15T04:11:02.432Z,2.83
2023-01-15T04:12:34.831Z,2.82
2023-01-15T04:13:57.253Z,2.82
2023-01-15T04:15:28.379Z,2.79
2023-01-15T04:16:50.316Z,2.77
2023-01-15T04:18:12.616Z,2.77
2023-01-15T04:19:34.864Z,2.78
2023-01-15T04:20:59.751Z,2.77
2023-01-15T04:22:22.864Z,2.78
2023-01-15T04:23:44.863Z,2.76
2023-01-15T04:25:08.019Z,2.76
2023-01-15T04:26:29.495Z,2.76
2023-01-15T04:27:53.874Z,2.76
2023-01-15T04:29:15.696Z,2.76
2023-01-15T04:30:37.615Z,2.74
2023-01-15T04:31:59.532Z,2.76
2023-01-15T04:33:21.232Z,2.76
2023-01-15T04:34:43.015Z,2.76
2023-01-15T04:36:05.315Z,2.75
2023-01-15T04:37:27.297Z,2.74
2023-01-15T04:38:49.313Z,2.76
2023-01-15T04:40:32.146Z,2.76
2023-01-15T04:42:12.657Z,2.75
2023-01-15T04:43:52.665Z,2.77
2023-01-15T04:45:14.433Z,2.76
2023-01-15T04:46:39.601Z,2.77
2023-01-15T04:48:01.167Z,2.78
2023-01-15T04:49:23.112Z,2.78
2023-01-15T04:50:44.909Z,2.78
2023-01-15T04:52:07.087Z,2.79
2023-01-15T04:53:28.744Z,2.79
2023-01-15T04:54:50.579Z,2.78
2023-01-15T04:56:12.647Z,2.78
2023-01-15T04:57:35.422Z,2.78
2023-01-15T04:58:59.471Z,2.78
2023-01-15T05:00:23.126Z,2.78
2023-01-15T05:02:01.918Z,2.77
2023-01-15T05:03:25.370Z,2.76
2023-01-15T05:04:47.536Z,2.71
2023-01-15T05:06:09.816Z,2.62
2023-01-15T05:07:31.485Z,2.57
2023-01-15T05:08:53.512Z,2.57
2023-01-15T05:10:15.609Z,2.56
2023-01-15T05:11:39.454Z,2.54
2023-01-15T05:13:01.280Z,2.52
2023-01-15T05:14:22.981Z,2.52
2023-01-15T05:15:49.013Z,2.47
2023-01-15T05:17:10.868Z,2.48
2023-01-15T05:18:32.791Z,2.47
2023-01-15T05:19:54.571Z,2.41
2023-01-15T05:21:25.555Z,2.43
2023-01-15T05:22:47.320Z,2.45
2023-01-15T05:24:13.127Z,2.45
2023-01-15T05:25:37.769Z,2.44
2023-01-15T05:26:59.768Z,2.44
2023-01-15T05:28:21.363Z,2.33
2023-01-15T05:29:43.419Z,2.33
2023-01-15T05:31:10.402Z,2.31
2023-01-15T05:32:32.159Z,2.28
2023-01-15T05:33:55.720Z,2.27
2023-01-15T05:35:17.587Z,2.28
2023-01-15T05:36:39.556Z,2.26
2023-01-15T05:38:01.388Z,2.25
2023-01-15T05:39:23.262Z,2.23
2023-01-15T05:40:45.362Z,2.22
2023-01-15T05:42:10.291Z,2.24
2023-01-15T05:43:31.930Z,2.22
2023-01-15T05:44:53.980Z,2.21
2023-01-15T05:46:15.762Z,2.19
2023-01-15T05:47:37.340Z,2.18
2023-01-15T05:49:04.289Z,2.16
2023-01-15T05:50:28.903Z,2.14
2023-01-15T05:51:52.516Z,2.15
2023-01-15T05:53:14.470Z,2.14
2023-01-15T05:54:37.043Z,2.14
2023-01-15T05:56:02.075Z,2.14
2023-01-15T05:57:23.843Z,2.13
2023-01-15T05:58:45.797Z,2.15
2023-01-15T06:00:11.322Z,2.14
2023-01-15T06:01:36.320Z,2.14
2023-01-15T06:02:58.356Z,2.14
2023-01-15T06:04:21.875Z,2.15
2023-01-15T06:05:43.964Z,2.17
2023-01-15T06:07:05.951Z,2.18
2023-01-15T06:08:27.415Z,2.20
2023-01-15T06:09:49.121Z,2.21
2023-01-15T06:11:11.659Z,2.23
2023-01-15T06:12:33.924Z,2.22
2023-01-15T06:13:56.269Z,2.24
2023-01-15T06:15:17.898Z,2.21
2023-01-15T06:16:41.271Z,2.17
2023-01-15T06:18:03.339Z,2.16
2023-01-15T06:19:25.034Z,2.16
2023-01-15T06:20:46.602Z,2.16
2023-01-15T06:22:10.876Z,2.16
2023-01-15T06:23:36.597Z,2.16
2023-01-15T06:24:58.833Z,2.16
2023-01-15T06:26:20.527Z,2.17
2023-01-15T06:27:44.585Z,2.17
2023-01-15T06:29:06.347Z,2.18
2023-01-15T06:30:28.075Z,2.18
2023-01-15T06:31:50.231Z,2.19
2023-01-15T06:33:12.368Z,2.19
2023-01-15T06:34:33.940Z,2.19
2023-01-15T06:35:55.968Z,2.19
2023-01-15T06:37:17.712Z,2.23
2023-01-15T06:38:39.859Z,2.26
2023-01-15T06:40:01.672Z,2.28
2023-01-15T06:41:54.696Z,2.31
2023-01-15T06:43:35.428Z,2.36
2023-01-15T06:45:15.643Z,2.38
2023-01-15T06:47:01.549Z,2.44
2023-01-15T06:48:27.245Z,2.50
2023-01-15T06:49:55.164Z,2.56
2023-01-15T06:51:20.450Z,2.62
2023-01-15T06:52:42.143Z,2.69
2023-01-15T06:54:04.029Z,2.78
2023-01-15T06:55:25.719Z,2.87
2023-01-15T06:56:47.976Z,2.96
2023-01-15T06:58:09.741Z,3.04
2023-01-15T06:59:32.118Z,3.17
2023-01-15T07:00:56.282Z,3.27
2023-01-15T07:02:18.567Z,3.41
2023-01-15T07:03:40.400Z,3.51
2023-01-15T07:05:02.518Z,3.65
2023-01-15T07:06:26.432Z,3.80
2023-01-15T07:07:48.668Z,3.93
2023-01-15T07:09:10.416Z,4.07
2023-01-15T07:10:33.817Z,4.22
2023-01-15T07:11:55.529Z,4.36
2023-01-15T07:13:17.187Z,4.49
2023-01-15T07:14:39.037Z,4.65
2023-01-15T07:16:02.853Z,4.76
2023-01-15T07:17:24.514Z,4.93
2023-01-15T07:18:46.487Z,5.05
2023-01-15T07:20:09.069Z,5.12
2023-01-15T07:21:31.341Z,5.13
2023-01-15T07:22:53.436Z,5.42
2023-01-15T07:24:17.105Z,5.46
2023-01-15T07:25:38.941Z,5.49
2023-01-15T07:27:01.252Z,5.51
2023-01-15T07:28:24.785Z,5.81
2023-01-15T07:29:46.679Z,5.96
2023-01-15T07:31:08.434Z,6.06
2023-01-15T07:32:31.168Z,6.03
2023-01-15T07:33:52.803Z,6.02
2023-01-15T07:35:14.781Z,6.22
2023-01-15T07:36:37.296Z,6.07
2023-01-15T07:37:59.066Z,6.37
2023-01-15T07:39:21.040Z,6.60
2023-01-15T07:40:42.921Z,6.89
2023-01-15T07:42:23.287Z,6.99
2023-01-15T07:44:04.111Z,6.92
2023-01-15T07:45:44.350Z,7.09
2023-01-15T07:47:37.033Z,7.54
2023-01-15T07:49:17.354Z,7.50
2023-01-15T07:50:39.429Z,7.94
2023-01-15T07:52:01.157Z,8.25
2023-01-15T07:53:22.756Z,8.57
2023-01-15T07:54:45.987Z,9.14
2023-01-15T07:56:08.745Z,9.70
2023-01-15T07:57:30.927Z,10.07
2023-01-15T07:58:52.642Z,10.57
2023-01-15T08:00:20.142Z,10.70
2023-01-15T08:01:42.016Z,10.62
2023-01-15T08:03:04.173Z,10.62
2023-01-15T08:04:26.331Z,10.80
2023-01-15T08:05:48.114Z,11.17
2023-01-15T08:07:10.531Z,11.74
2023-01-15T08:08:32.470Z,11.86
2023-01-15T08:09:54.481Z,11.88
2023-01-15T08:11:35.087Z,12.22
2023-01-15T08:13:15.208Z,12.31
2023-01-15T08:14:55.504Z,11.73
2023-01-15T08:16:17.505Z,11.64
2023-01-15T08:17:43.803Z,11.60
2023-01-15T08:19:06.083Z,12.12
2023-01-15T08:20:28.277Z,12.87
2023-01-15T08:21:50.266Z,13.15
2023-01-15T08:23:12.089Z,13.56
2023-01-15T08:24:34.202Z,13.79
2023-01-15T08:25:58.864Z,13.97
2023-01-15T08:27:20.839Z,14.27
2023-01-15T08:28:42.794Z,13.91
2023-01-15T08:30:06.882Z,14.24
2023-01-15T08:31:28.571Z,14.58
2023-01-15T08:32:50.369Z,14.89
2023-01-15T08:34:12.283Z,15.53
2023-01-15T08:35:34.674Z,15.57
2023-01-15T08:37:00.274Z,16.03
2023-01-15T08:38:22.203Z,16.36
2023-01-15T08:39:44.199Z,16.63
2023-01-15T08:41:06.296Z,16.37
2023-01-15T08:42:28.471Z,17.24
2023-01-15T08:43:51.021Z,17.28
2023-01-15T08:45:12.959Z,17.39
2023-01-15T08:46:34.691Z,17.27
2023-01-15T08:47:58.355Z,18.30
2023-01-15T08:49:20.906Z,17.63
2023-01-15T08:50:42.708Z,18.43
2023-01-15T08:52:05.245Z,18.96
2023-01-15T08:53:29.321Z,19.07
2023-01-15T08:54:50.908Z,18.76
2023-01-15T08:56:20.770Z,18.52
2023-01-15T08:57:44.525Z,18.89
2023-01-15T08:59:08.274Z,19.80
2023-01-15T09:00:30.347Z,20.08
2023-01-15T09:01:52.134Z,19.15
2023-01-15T09:03:15.786Z,19.50
2023-01-15T09:04:38.659Z,19.77
2023-01-15T09:06:02.118Z,19.60
2023-01-15T09:07:24.005Z,19.84
2023-01-15T09:08:45.765Z,18.37
2023-01-15T09:10:08.064Z,17.52
2023-01-15T09:11:30.039Z,18.09
2023-01-15T09:12:51.671Z,18.39
2023-01-15T09:14:56.764Z,18.55
2023-01-15T09:16:05.386Z,16.95
2023-01-15T09:17:27.335Z,16.56
2023-01-15T09:18:48.957Z,17.16
2023-01-15T09:20:13.246Z,17.45
2023-01-15T09:21:35.601Z,17.35
2023-01-15T09:22:57.163Z,17.27
2023-01-15T09:24:19.047Z,17.14
2023-01-15T09:25:42.355Z,15.91
2023-01-15T09:27:04.473Z,15.78
2023-01-15T09:28:27.526Z,15.20
2023-01-15T09:29:49.077Z,14.54
2023-01-15T09:31:11.238Z,13.91
2023-01-15T09:32:33.817Z,13.26
2023-01-15T09:33:56.082Z,12.21
2023-01-15T09:35:18.097Z,11.78
2023-01-15T09:36:41.376Z,11.66
2023-01-15T09:38:03.448Z,11.43
2023-01-15T09:39:25.060Z,11.32
2023-01-15T09:40:56.813Z,11.10
2023-01-15T09:42:39.256Z,10.87
2023-01-15T09:44:28.173Z,10.26
2023-01-15T09:46:20.352Z,10.19
2023-01-15T09:47:45.530Z,9.90
2023-01-15T09:49:45.198Z,9.54
2023-01-15T09:51:35.649Z,9.33
2023-01-15T09:53:17.422Z,8.58
2023-01-15T09:54:57.543Z,8.39
2023-01-15T09:56:25.597Z,8.23
2023-01-15T09:57:54.784Z,8.18
2023-01-15T09:59:26.517Z,7.80
2023-01-15T10:00:51.572Z,7.60
2023-01-15T10:02:35.015Z,7.67
2023-01-15T10:03:57.167Z,7.68
2023-01-15T10:05:31.919Z,7.57
2023-01-15T10:07:22.951Z,7.50
2023-01-15T10:08:53.295Z,7.32
2023-01-15T10:10:20.055Z,7.36
2023-01-15T10:12:09.273Z,7.44
2023-01-15T10:13:47.672Z,7.20
2023-01-15T10:15:27.908Z,7.19
2023-01-15T10:16:50.019Z,7.07
2023-01-15T10:18:18.010Z,7.01
2023-01-15T10:19:44.849Z,7.06
2023-01-15T10:21:31.107Z,7.07
2023-01-15T10:23:31.602Z,7.07
2023-01-15T10:24:57.718Z,6.94
2023-01-15T10:26:31.777Z,6.80
2023-01-15T10:27:56.359Z,6.73
2023-01-15T10:29:23.739Z,6.70
2023-01-15T10:30:51.636Z,6.63
2023-01-15T10:32:37.381Z,6.65
2023-01-15T10:34:04.595Z,6.58
2023-01-15T10:35:42.020Z,6.57
2023-01-15T10:37:30.918Z,6.34
2023-01-15T10:39:25.647Z,6.42
2023-01-15T10:41:25.042Z,6.36
2023-01-15T10:43:20.621Z,6.42
2023-01-15T10:45:01.229Z,6.45
2023-01-15T10:46:33.521Z,6.50
2023-01-15T10:48:05.918Z,6.52
2023-01-15T10:49:30.657Z,6.43
2023-01-15T10:50:52.986Z,6.44
2023-01-15T10:52:31.239Z,6.39
2023-01-15T10:54:03.060Z,6.34
2023-01-15T10:55:35.109Z,6.38
2023-01-15T10:57:20.652Z,6.41
2023-01-15T10:58:54.595Z,6.46
2023-01-15T11:00:17.169Z,6.49
2023-01-15T11:01:40.842Z,6.45
2023-01-15T11:03:08.224Z,6.49
2023-01-15T11:04:33.279Z,6.50
2023-01-15T11:05:55.104Z,6.49
2023-01-15T11:07:18.203Z,6.40
2023-01-15T11:09:12.415Z,6.45
2023-01-15T11:10:26.279Z,6.38
2023-01-15T11:12:00.664Z,6.34
2023-01-15T11:13:43.361Z,6.31
2023-01-15T11:15:34.369Z,6.13
2023-01-15T11:17:08.348Z,5.92
2023-01-15T11:18:54.975Z,5.92
2023-01-15T11:20:34.684Z,5.87
2023-01-15T11:21:56.727Z,5.85
2023-01-15T11:23:23.343Z,5.85
2023-01-15T11:24:54.755Z,5.84
2023-01-15T11:26:31.173Z,5.83
2023-01-15T11:27:53.356Z,5.86
2023-01-15T11:29:25.647Z,5.80
2023-01-15T11:30:55.512Z,5.75
2023-01-15T11:32:29.728Z,5.80
2023-01-15T11:34:03.578Z,5.83
2023-01-15T11:35:26.077Z,5.83
2023-01-15T11:36:49.205Z,5.79
2023-01-15T11:38:15.056Z,5.78
2023-01-15T11:39:36.713Z,5.81
2023-01-15T11:41:01.755Z,5.80
2023-01-15T11:42:42.228Z,5.80
2023-01-15T11:44:22.331Z,5.77
2023-01-15T11:46:07.013Z,5.76
2023-01-15T11:47:47.178Z,5.76
2023-01-15T11:49:29.540Z,5.77
2023-01-15T11:50:56.885Z,5.81
2023-01-15T11:52:22.843Z,5.85
2023-01-15T11:53:50.893Z,5.88
2023-01-15T11:55:15.989Z,5.90
2023-01-15T11:56:43.429Z,5.96
2023-01-15T11:58:08.941Z,6.00
2023-01-15T11:59:30.627Z,6.03
2023-01-15T12:00:55.854Z,6.08
2023-01-15T12:02:34.912Z,6.14
2023-01-15T12:04:01.353Z,6.16
2023-01-15T12:05:27.236Z,6.20
2023-01-15T12:06:49.591Z,6.20
2023-01-15T12:08:42.254Z,6.19
2023-01-15T12:10:16.399Z,6.23
2023-01-15T12:11:47.011Z,6.27
2023-01-15T12:13:46.335Z,6.29
2023-01-15T12:15:30.672Z,6.32
2023-01-15T12:17:14.319Z,6.32
2023-01-15T12:19:01.115Z,6.33
2023-01-15T12:20:33.154Z,6.27
2023-01-15T12:22:09.693Z,6.27
2023-01-15T12:23:58.442Z,6.29
2023-01-15T12:25:29.636Z,6.26
2023-01-15T12:27:00.135Z,6.25
2023-01-15T12:28:38.649Z,6.25
2023-01-15T12:30:03.802Z,6.23
2023-01-15T12:31:55.382Z,6.20
2023-01-15T12:33:26.009Z,6.19
2023-01-15T12:35:04.233Z,6.18
2023-01-15T12:38:41.082Z,6.10
2023-01-15T12:40:14.901Z,6.04
2023-01-15T12:41:58.780Z,6.01
2023-01-15T12:43:46.577Z,5.99
2023-01-15T12:45:25.344Z,5.97
2023-01-15T12:46:47.666Z,5.92
2023-01-15T12:48:32.025Z,5.91
2023-01-15T12:50:29.120Z,5.89
2023-01-15T12:52:24.370Z,5.87
2023-01-15T12:54:19.406Z,5.90
2023-01-15T12:55:51.845Z,5.98
2023-01-15T12:57:26.203Z,5.98
2023-01-15T12:59:15.890Z,6.02
2023-01-15T13:00:42.875Z,6.04
2023-01-15T13:02:21.919Z,6.05
2023-01-15T13:03:49.489Z,6.04
2023-01-15T13:05:34.339Z,6.04
2023-01-15T13:07:14.375Z,6.01
2023-01-15T13:08:46.171Z,6.04
2023-01-15T13:10:25.580Z,6.05
2023-01-15T13:11:47.562Z,6.05
2023-01-15T13:13:20.553Z,6.06
2023-01-15T13:14:46.344Z,6.06
2023-01-15T13:16:38.512Z,6.43
2023-01-15T13:18:15.854Z,6.88
2023-01-15T13:20:21.465Z,6.74
2023-01-15T13:21:45.632Z,6.63
2023-01-15T13:23:18.551Z,6.46
2023-01-15T13:24:45.964Z,6.41
2023-01-15T13:26:10.376Z,6.35
2023-01-15T13:27:37.939Z,6.31
2023-01-15T13:29:05.933Z,6.28
2023-01-15T13:30:54.090Z,6.22
2023-01-15T13:32:20.889Z,6.19
2023-01-15T13:33:49.016Z,6.17
2023-01-15T13:35:32.339Z,6.16
2023-01-15T13:36:59.364Z,6.17
2023-01-15T13:38:27.268Z,6.15
2023-01-15T13:39:51.112Z,6.13
2023-01-15T13:41:40.884Z,6.14
2023-01-15T13:43:04.407Z,6.09
2023-01-15T13:44:36.627Z,6.07
2023-01-15T13:45:59.549Z,6.06
2023-01-15T13:47:25.893Z,6.04
2023-01-15T13:48:50.183Z,6.01
2023-01-15T13:50:33.955Z,5.98
2023-01-15T13:51:58.869Z,5.91
2023-01-15T13:53:34.177Z,5.90
2023-01-15T13:55:01.095Z,5.90
2023-01-15T13:56:32.875Z,5.86
2023-01-15T13:57:55.059Z,5.89
2023-01-15T13:59:44.609Z,5.91
2023-01-15T14:01:18.177Z,5.86
2023-01-15T14:02:41.221Z,5.80
2023-01-15T14:04:07.575Z,5.77
2023-01-15T14:05:36.627Z,5.75
2023-01-15T14:06:58.531Z,5.74
2023-01-15T14:08:28.279Z,5.73
2023-01-15T14:09:51.262Z,5.70
2023-01-15T14:11:38.969Z,5.70
2023-01-15T14:13:56.160Z,5.69
2023-01-15T14:15:40.996Z,5.66
2023-01-15T14:17:28.369Z,5.62
2023-01-15T14:19:14.727Z,5.60
2023-01-15T14:20:56.372Z,5.58
2023-01-15T14:22:49.220Z,5.56
2023-01-15T14:24:48.230Z,5.52
2023-01-15T14:26:28.064Z,5.50
2023-01-15T14:28:08.989Z,5.47
2023-01-15T14:29:53.211Z,5.46
2023-01-15T14:31:28.813Z,5.43
2023-01-15T14:33:11.471Z,5.41
2023-01-15T14:34:35.481Z,5.39
2023-01-15T14:35:57.363Z,5.37
2023-01-15T14:37:18.905Z,5.34
2023-01-15T14:38:55.767Z,5.32
2023-01-15T14:40:22.423Z,5.32
2023-01-15T14:42:02.541Z,5.30
2023-01-15T14:43:26.088Z,5.28
2023-01-15T14:44:55.954Z,5.26
2023-01-15T14:46:34.680Z,5.22
2023-01-15T14:47:58.991Z,5.20
2023-01-15T14:49:32.304Z,5.20
2023-01-15T14:50:54.931Z,5.16
2023-01-15T14:52:23.762Z,5.14
2023-01-15T14:53:56.143Z,5.13
2023-01-15T14:55:19.490Z,5.09
2023-01-15T14:56:55.584Z,5.06
2023-01-15T14:59:02.605Z,5.04
2023-01-15T15:00:29.443Z,5.03
2023-01-15T15:01:58.157Z,5.00
2023-01-15T15:03:34.667Z,4.98
2023-01-15T15:04:58.081Z,4.98
2023-01-15T15:06:20.767Z,4.96
2023-01-15T15:07:48.069Z,4.90
2023-01-15T15:09:14.133Z,4.91
2023-01-15T15:10:41.297Z,4.87
2023-01-15T15:12:44.341Z,4.80
2023-01-15T15:14:09.772Z,4.79
2023-01-15T15:15:42.472Z,4.76
2023-01-15T15:17:14.548Z,4.74
2023-01-15T15:19:09.724Z,4.70
2023-01-15T15:20:59.622Z,4.72
2023-01-15T15:22:22.239Z,4.69
2023-01-15T15:24:07.423Z,4.65
2023-01-15T15:25:35.331Z,4.62
2023-01-15T15:26:57.015Z,4.62
2023-01-15T15:28:18.872Z,4.58
2023-01-15T15:29:41.029Z,4.59
2023-01-15T15:31:03.347Z,4.53
2023-01-15T15:32:25.878Z,4.53
2023-01-15T15:33:47.544Z,4.49
2023-01-15T15:35:29.155Z,4.49
2023-01-15T15:36:51.109Z,4.47
2023-01-15T15:38:19.111Z,4.44
2023-01-15T15:39:45.160Z,4.44
2023-01-15T15:41:12.175Z,4.43
2023-01-15T15:42:57.975Z,4.42
2023-01-15T15:45:03.650Z,4.40
2023-01-15T15:46:49.786Z,4.38
2023-01-15T15:48:37.051Z,4.32
2023-01-15T15:49:58.732Z,4.23
2023-01-15T15:51:48.703Z,4.24
2023-01-15T15:53:17.218Z,4.25
2023-01-15T15:54:38.949Z,4.25
2023-01-15T15:56:01.847Z,4.21
2023-01-15T15:57:24.006Z,4.18
2023-01-15T15:58:46.358Z,4.16
2023-01-15T16:00:29.639Z,4.09
2023-01-15T16:01:52.026Z,4.05
2023-01-15T16:03:23.199Z,4.11
2023-01-15T16:05:22.858Z,4.07
2023-01-15T16:06:44.829Z,4.05
2023-01-15T16:08:20.659Z,4.05
2023-01-15T16:09:48.220Z,4.08
2023-01-15T16:11:13.727Z,4.10
2023-01-15T16:12:41.144Z,4.13
2023-01-15T16:14:08.267Z,4.12
2023-01-15T16:15:38.732Z,4.10
2023-01-15T16:17:00.605Z,4.04
2023-01-15T16:18:29.321Z,3.86
2023-01-15T16:19:51.532Z,3.81
2023-01-15T16:21:24.457Z,3.75
2023-01-15T16:22:48.954Z,3.84
2023-01-15T16:24:26.157Z,3.85
2023-01-15T16:25:59.048Z,3.85
2023-01-15T16:27:22.305Z,3.90
2023-01-15T16:28:54.022Z,3.89
2023-01-15T16:30:17.448Z,3.85
2023-01-15T16:31:39.439Z,3.87
2023-01-15T16:33:04.413Z,3.85
2023-01-15T16:34:30.735Z,3.85
2023-01-15T16:36:04.642Z,3.77
2023-01-15T16:37:30.786Z,3.82
2023-01-15T16:38:54.272Z,3.78
2023-01-15T16:40:33.011Z,3.80
2023-01-15T16:42:02.400Z,3.82
2023-01-15T16:43:26.033Z,3.83
2023-01-15T16:44:55.904Z,3.77
2023-01-15T16:46:20.402Z,3.75
2023-01-15T16:48:03.303Z,3.78
2023-01-15T16:49:26.920Z,3.76
2023-01-15T16:50:49.426Z,3.76
2023-01-15T16:52:49.324Z,3.74
2023-01-15T16:54:30.279Z,3.72
2023-01-15T16:55:55.368Z,3.74
2023-01-15T16:57:32.454Z,3.77
2023-01-15T16:58:54.660Z,3.78
2023-01-15T17:00:30.940Z,3.74
2023-01-15T17:01:59.951Z,3.73
2023-01-15T17:03:24.237Z,3.71
2023-01-15T17:04:46.958Z,3.73
2023-01-15T17:06:13.560Z,3.74
2023-01-15T17:07:39.229Z,3.72
2023-01-15T17:09:01.260Z,3.74
2023-01-15T17:10:28.420Z,3.61
2023-01-15T17:11:52.460Z,3.63
2023-01-15T17:13:19.779Z,3.66
2023-01-15T17:14:41.835Z,3.63
2023-01-15T17:16:07.107Z,3.66
2023-01-15T17:17:29.692Z,3.64
2023-01-15T17:18:52.395Z,3.64
2023-01-15T17:20:17.101Z,3.61
2023-01-15T17:21:39.822Z,3.62
2023-01-15T17:23:01.446Z,3.59
2023-01-15T17:24:23.343Z,3.60
2023-01-15T17:25:48.120Z,3.59
2023-01-15T17:27:09.774Z,3.59
2023-01-15T17:28:31.917Z,3.58
2023-01-15T17:29:53.945Z,3.59
2023-01-15T17:31:28.400Z,3.55
2023-01-15T17:32:50.358Z,3.52
2023-01-15T17:34:12.590Z,3.54
2023-01-15T17:35:41.207Z,3.53
2023-01-15T17:37:02.659Z,3.51
2023-01-15T17:38:24.674Z,3.48
2023-01-15T17:39:46.365Z,3.43
2023-01-15T17:41:12.045Z,3.38
2023-01-15T17:42:34.109Z,3.31
2023-01-15T17:43:56.086Z,3.38
2023-01-15T17:45:21.503Z,3.38
2023-01-15T17:46:43.600Z,3.40
2023-01-15T17:48:08.930Z,3.34
2023-01-15T17:49:30.862Z,3.35
2023-01-15T17:50:54.611Z,3.32
2023-01-15T17:52:19.870Z,3.33
2023-01-15T17:53:41.903Z,3.34
2023-01-15T17:55:22.972Z,3.35
2023-01-15T17:57:03.652Z,3.39
2023-01-15T17:58:44.154Z,3.35
2023-01-15T18:00:24.901Z,3.30
2023-01-15T18:02:06.652Z,3.22
2023-01-15T18:03:47.925Z,3.21
2023-01-15T18:05:27.125Z,3.16
2023-01-15T18:06:53.200Z,3.19
2023-01-15T18:08:17.803Z,3.17
2023-01-15T18:09:40.186Z,3.12
2023-01-15T18:11:01.813Z,3.15
2023-01-15T18:12:23.735Z,3.13
2023-01-15T18:13:45.517Z,3.13
2023-01-15T18:15:08.093Z,3.11
2023-01-15T18:16:30.232Z,3.08
2023-01-15T18:17:51.944Z,3.11
2023-01-15T18:19:13.700Z,3.11
2023-01-15T18:20:35.724Z,3.09
2023-01-15T18:21:57.644Z,3.05
2023-01-15T18:23:19.655Z,3.01
2023-01-15T18:24:41.502Z,3.00
2023-01-15T18:26:04.576Z,2.95
2023-01-15T18:27:30.097Z,2.94
2023-01-15T18:28:51.913Z,2.95
2023-01-15T18:30:15.529Z,2.92
2023-01-15T18:31:38.974Z,2.93
2023-01-15T18:33:02.676Z,2.96
2023-01-15T18:34:24.794Z,2.97
2023-01-15T18:35:46.585Z,2.94
2023-01-15T18:37:08.397Z,3.00
2023-01-15T18:38:30.126Z,2.98
2023-01-15T18:39:52.254Z,2.96
2023-01-15T18:41:52.060Z,2.98
2023-01-15T18:43:32.561Z,2.99
2023-01-15T18:45:12.727Z,2.95
2023-01-15T18:46:47.389Z,2.98
2023-01-15T18:48:10.823Z,3.01
2023-01-15T18:49:32.738Z,2.99
2023-01-15T18:50:55.889Z,2.93
2023-01-15T18:52:36.095Z,2.95
2023-01-15T18:53:57.625Z,2.93
2023-01-15T18:55:22.783Z,2.92
2023-01-15T18:56:48.043Z,2.94
2023-01-15T18:58:10.419Z,2.93
2023-01-15T18:59:33.050Z,2.93
2023-01-15T19:00:54.830Z,2.94
2023-01-15T19:02:18.826Z,2.95
2023-01-15T19:03:40.724Z,2.95
2023-01-15T19:05:02.504Z,2.91
2023-01-15T19:06:24.711Z,2.97
2023-01-15T19:07:46.776Z,3.00
2023-01-15T19:09:16.182Z,2.98
2023-01-15T19:10:38.139Z,2.98
2023-01-15T19:12:00.136Z,2.95
2023-01-15T19:13:21.949Z,2.97
2023-01-15T19:15:03.037Z,2.97
2023-01-15T19:16:43.371Z,2.99
2023-01-15T19:18:24.618Z,2.99
2023-01-15T19:19:46.384Z,3.01
2023-01-15T19:21:09.005Z,2.98
2023-01-15T19:22:49.089Z,2.96
2023-01-15T19:24:10.950Z,2.96
2023-01-15T19:25:48.851Z,2.98
2023-01-15T19:27:10.808Z,2.95
2023-01-15T19:28:33.463Z,2.93
2023-01-15T19:29:55.510Z,2.93
2023-01-15T19:31:36.929Z,2.83
2023-01-15T19:32:59.394Z,2.71
2023-01-15T19:34:33.629Z,2.69
2023-01-15T19:35:55.561Z,2.63
2023-01-15T19:37:17.628Z,2.62
2023-01-15T19:38:42.064Z,2.68